sensor_id;sensor_type;location;lat;lon;timestamp;P1;durP1;ratioP1;P2;durP2;ratioP2
22072;SDS011;11202;50.916;4.698;2022-07-04T00:00:48;6.57;;;3.00;;
22072;SDS011;11202;50.916;4.698;2022-07-04T00:03:14;5.90;;;3.25;;
22072;SDS011;11202;50.916;4.698;2022-07-04T00:05:40;5.65;;;3.70;;
22072;SDS011;11202;50.916;4.698;2022-07-04T00:08:08;4.03;;;3.20;;
22072;SDS011;11202;50.916;4.698;2022-07-04T00:10:34;7.30;;;3.42;;
22072;SDS011;11202;50.916;4.698;2022-07-04T00:13:00;7.13;;;3.40;;
22072;SDS011;11202;50.916;4.698;2022-07-04T00:15:25;6.45;;;3.55;;
22072;SDS011;11202;50.916;4.698;2022-07-04T00:17:51;11.70;;;3.72;;
22072;SDS011;11202;50.916;4.698;2022-07-04T00:20:17;6.90;;;3.53;;
22072;SDS011;11202;50.916;4.698;2022-07-04T00:22:43;10.18;;;3.80;;
22072;SDS011;11202;50.916;4.698;2022-07-04T00:25:11;14.25;;;4.05;;
22072;SDS011;11202;50.916;4.698;2022-07-04T00:27:37;6.82;;;3.63;;
22072;SDS011;11202;50.916;4.698;2022-07-04T00:30:03;8.20;;;4.00;;
22072;SDS011;11202;50.916;4.698;2022-07-04T00:32:30;5.93;;;3.17;;
22072;SDS011;11202;50.916;4.698;2022-07-04T00:34:56;4.10;;;2.90;;
22072;SDS011;11202;50.916;4.698;2022-07-04T00:37:24;8.85;;;3.35;;
22072;SDS011;11202;50.916;4.698;2022-07-04T00:39:49;6.40;;;3.05;;
22072;SDS011;11202;50.916;4.698;2022-07-04T00:42:15;4.72;;;3.10;;
22072;SDS011;11202;50.916;4.698;2022-07-04T00:44:41;5.32;;;3.03;;
22072;SDS011;11202;50.916;4.698;2022-07-04T00:47:07;4.88;;;3.30;;
22072;SDS011;11202;50.916;4.698;2022-07-04T00:49:35;4.90;;;3.38;;
22072;SDS011;11202;50.916;4.698;2022-07-04T00:52:05;6.28;;;3.67;;
22072;SDS011;11202;50.916;4.698;2022-07-04T00:54:32;4.78;;;3.55;;
22072;SDS011;11202;50.916;4.698;2022-07-04T00:56:58;6.15;;;3.70;;
22072;SDS011;11202;50.916;4.698;2022-07-04T00:59:25;9.23;;;3.60;;
22072;SDS011;11202;50.916;4.698;2022-07-04T01:01:52;8.02;;;3.95;;
22072;SDS011;11202;50.916;4.698;2022-07-04T01:04:18;7.88;;;3.70;;
22072;SDS011;11202;50.916;4.698;2022-07-04T01:06:46;6.32;;;3.47;;
22072;SDS011;11202;50.916;4.698;2022-07-04T01:09:12;8.13;;;3.70;;
22072;SDS011;11202;50.916;4.698;2022-07-04T01:11:38;6.72;;;3.95;;
22072;SDS011;11202;50.916;4.698;2022-07-04T01:14:04;8.80;;;3.47;;
22072;SDS011;11202;50.916;4.698;2022-07-04T01:16:31;11.23;;;4.10;;
22072;SDS011;11202;50.916;4.698;2022-07-04T01:18:58;6.72;;;3.33;;
22072;SDS011;11202;50.916;4.698;2022-07-04T01:21:23;8.68;;;3.60;;
22072;SDS011;11202;50.916;4.698;2022-07-04T01:23:49;6.63;;;3.53;;
22072;SDS011;11202;50.916;4.698;2022-07-04T01:26:20;6.38;;;3.30;;
22072;SDS011;11202;50.916;4.698;2022-07-04T01:28:47;5.72;;;3.47;;
22072;SDS011;11202;50.916;4.698;2022-07-04T01:31:13;5.90;;;3.58;;
22072;SDS011;11202;50.916;4.698;2022-07-04T01:33:38;9.85;;;3.50;;
22072;SDS011;11202;50.916;4.698;2022-07-04T01:36:04;11.15;;;4.03;;
22072;SDS011;11202;50.916;4.698;2022-07-04T01:38:30;8.55;;;3.97;;
22072;SDS011;11202;50.916;4.698;2022-07-04T01:40:56;4.88;;;3.72;;
22072;SDS011;11202;50.916;4.698;2022-07-04T01:43:21;6.30;;;3.75;;
22072;SDS011;11202;50.916;4.698;2022-07-04T01:45:53;10.20;;;4.00;;
22072;SDS011;11202;50.916;4.698;2022-07-04T01:48:19;7.95;;;3.60;;
22072;SDS011;11202;50.916;4.698;2022-07-04T01:50:47;6.15;;;4.10;;
22072;SDS011;11202;50.916;4.698;2022-07-04T01:53:12;7.72;;;4.45;;
22072;SDS011;11202;50.916;4.698;2022-07-04T01:55:38;9.75;;;3.85;;
22072;SDS011;11202;50.916;4.698;2022-07-04T01:58:03;8.15;;;4.22;;
22072;SDS011;11202;50.916;4.698;2022-07-04T02:00:29;5.53;;;3.80;;
22072;SDS011;11202;50.916;4.698;2022-07-04T02:03:13;8.50;;;3.83;;
22072;SDS011;11202;50.916;4.698;2022-07-04T02:05:39;7.93;;;3.75;;
22072;SDS011;11202;50.916;4.698;2022-07-04T02:08:05;8.43;;;4.35;;
22072;SDS011;11202;50.916;4.698;2022-07-04T02:10:35;8.82;;;4.03;;
22072;SDS011;11202;50.916;4.698;2022-07-04T02:13:01;6.35;;;3.72;;
22072;SDS011;11202;50.916;4.698;2022-07-04T02:15:27;7.55;;;3.83;;
22072;SDS011;11202;50.916;4.698;2022-07-04T02:17:53;8.13;;;4.10;;
22072;SDS011;11202;50.916;4.698;2022-07-04T02:20:20;7.30;;;3.80;;
22072;SDS011;11202;50.916;4.698;2022-07-04T02:22:45;7.78;;;3.95;;
22072;SDS011;11202;50.916;4.698;2022-07-04T02:25:14;8.68;;;4.07;;
22072;SDS011;11202;50.916;4.698;2022-07-04T02:27:39;9.25;;;4.20;;
22072;SDS011;11202;50.916;4.698;2022-07-04T02:30:06;6.63;;;3.97;;
22072;SDS011;11202;50.916;4.698;2022-07-04T02:32:32;5.72;;;3.95;;
22072;SDS011;11202;50.916;4.698;2022-07-04T02:34:58;8.57;;;3.70;;
22072;SDS011;11202;50.916;4.698;2022-07-04T02:37:23;5.22;;;3.70;;
22072;SDS011;11202;50.916;4.698;2022-07-04T02:39:49;11.98;;;3.70;;
22072;SDS011;11202;50.916;4.698;2022-07-04T02:42:15;10.82;;;3.97;;
22072;SDS011;11202;50.916;4.698;2022-07-04T02:44:40;8.93;;;3.70;;
22072;SDS011;11202;50.916;4.698;2022-07-04T02:47:08;10.57;;;3.70;;
22072;SDS011;11202;50.916;4.698;2022-07-04T02:49:33;8.48;;;3.92;;
22072;SDS011;11202;50.916;4.698;2022-07-04T02:51:59;9.13;;;3.78;;
22072;SDS011;11202;50.916;4.698;2022-07-04T02:54:25;9.48;;;3.67;;
22072;SDS011;11202;50.916;4.698;2022-07-04T02:56:50;6.80;;;3.67;;
22072;SDS011;11202;50.916;4.698;2022-07-04T02:59:16;4.03;;;3.53;;
22072;SDS011;11202;50.916;4.698;2022-07-04T03:01:41;8.43;;;3.58;;
22072;SDS011;11202;50.916;4.698;2022-07-04T03:04:07;7.43;;;3.67;;
22072;SDS011;11202;50.916;4.698;2022-07-04T03:06:33;4.95;;;3.15;;
22072;SDS011;11202;50.916;4.698;2022-07-04T03:08:58;10.85;;;3.53;;
22072;SDS011;11202;50.916;4.698;2022-07-04T03:11:24;4.95;;;3.28;;
22072;SDS011;11202;50.916;4.698;2022-07-04T03:13:50;9.43;;;3.20;;
22072;SDS011;11202;50.916;4.698;2022-07-04T03:16:17;4.60;;;3.25;;
22072;SDS011;11202;50.916;4.698;2022-07-04T03:18:42;7.82;;;3.45;;
22072;SDS011;11202;50.916;4.698;2022-07-04T03:21:10;7.57;;;3.30;;
22072;SDS011;11202;50.916;4.698;2022-07-04T03:23:39;6.35;;;3.25;;
22072;SDS011;11202;50.916;4.698;2022-07-04T03:26:04;5.57;;;3.08;;
22072;SDS011;11202;50.916;4.698;2022-07-04T03:28:30;5.40;;;3.20;;
22072;SDS011;11202;50.916;4.698;2022-07-04T03:30:58;3.20;;;2.67;;
22072;SDS011;11202;50.916;4.698;2022-07-04T03:33:24;6.20;;;3.20;;
22072;SDS011;11202;50.916;4.698;2022-07-04T03:35:54;6.05;;;3.10;;
22072;SDS011;11202;50.916;4.698;2022-07-04T03:38:20;7.47;;;3.70;;
22072;SDS011;11202;50.916;4.698;2022-07-04T03:40:46;9.32;;;3.42;;
22072;SDS011;11202;50.916;4.698;2022-07-04T03:43:14;11.10;;;3.22;;
22072;SDS011;11202;50.916;4.698;2022-07-04T03:45:41;6.88;;;3.40;;
22072;SDS011;11202;50.916;4.698;2022-07-04T03:48:07;8.82;;;3.47;;
22072;SDS011;11202;50.916;4.698;2022-07-04T03:50:33;10.20;;;3.38;;
22072;SDS011;11202;50.916;4.698;2022-07-04T03:52:58;6.63;;;2.90;;
22072;SDS011;11202;50.916;4.698;2022-07-04T03:55:24;6.68;;;3.10;;
22072;SDS011;11202;50.916;4.698;2022-07-04T03:57:52;7.82;;;3.25;;
22072;SDS011;11202;50.916;4.698;2022-07-04T04:00:18;7.63;;;3.78;;
22072;SDS011;11202;50.916;4.698;2022-07-04T04:02:43;7.95;;;2.88;;
22072;SDS011;11202;50.916;4.698;2022-07-04T04:05:09;4.93;;;3.20;;
22072;SDS011;11202;50.916;4.698;2022-07-04T04:07:59;5.53;;;3.50;;
22072;SDS011;11202;50.916;4.698;2022-07-04T04:10:29;5.32;;;3.15;;
22072;SDS011;11202;50.916;4.698;2022-07-04T04:12:57;7.68;;;2.78;;
22072;SDS011;11202;50.916;4.698;2022-07-04T04:15:23;5.55;;;2.95;;
22072;SDS011;11202;50.916;4.698;2022-07-04T04:17:49;7.38;;;3.50;;
22072;SDS011;11202;50.916;4.698;2022-07-04T04:20:15;9.95;;;3.30;;
22072;SDS011;11202;50.916;4.698;2022-07-04T04:22:40;9.23;;;3.30;;
22072;SDS011;11202;50.916;4.698;2022-07-04T04:25:08;4.93;;;2.90;;
22072;SDS011;11202;50.916;4.698;2022-07-04T04:27:37;7.22;;;3.10;;
22072;SDS011;11202;50.916;4.698;2022-07-04T04:30:03;5.38;;;2.83;;
22072;SDS011;11202;50.916;4.698;2022-07-04T04:32:32;6.43;;;3.47;;
22072;SDS011;11202;50.916;4.698;2022-07-04T04:34:58;4.10;;;2.97;;
22072;SDS011;11202;50.916;4.698;2022-07-04T04:37:24;9.45;;;3.17;;
22072;SDS011;11202;50.916;4.698;2022-07-04T04:39:49;10.00;;;3.35;;
22072;SDS011;11202;50.916;4.698;2022-07-04T04:42:15;9.35;;;2.80;;
22072;SDS011;11202;50.916;4.698;2022-07-04T04:44:40;5.03;;;2.78;;
22072;SDS011;11202;50.916;4.698;2022-07-04T04:47:06;6.90;;;2.97;;
22072;SDS011;11202;50.916;4.698;2022-07-04T04:49:32;7.75;;;3.15;;
22072;SDS011;11202;50.916;4.698;2022-07-04T04:51:58;11.52;;;2.90;;
22072;SDS011;11202;50.916;4.698;2022-07-04T04:54:24;7.28;;;2.78;;
22072;SDS011;11202;50.916;4.698;2022-07-04T04:56:52;6.15;;;2.70;;
22072;SDS011;11202;50.916;4.698;2022-07-04T04:59:18;9.57;;;2.80;;
22072;SDS011;11202;50.916;4.698;2022-07-04T05:01:46;6.35;;;2.85;;
22072;SDS011;11202;50.916;4.698;2022-07-04T05:04:11;8.43;;;2.55;;
22072;SDS011;11202;50.916;4.698;2022-07-04T05:06:39;7.38;;;2.42;;
22072;SDS011;11202;50.916;4.698;2022-07-04T05:09:05;5.70;;;2.17;;
22072;SDS011;11202;50.916;4.698;2022-07-04T05:11:31;3.45;;;2.05;;
22072;SDS011;11202;50.916;4.698;2022-07-04T05:13:57;4.40;;;2.20;;
22072;SDS011;11202;50.916;4.698;2022-07-04T05:16:24;2.55;;;2.00;;
22072;SDS011;11202;50.916;4.698;2022-07-04T05:18:50;2.63;;;1.95;;
22072;SDS011;11202;50.916;4.698;2022-07-04T05:21:18;8.73;;;2.47;;
22072;SDS011;11202;50.916;4.698;2022-07-04T05:23:44;5.65;;;2.17;;
22072;SDS011;11202;50.916;4.698;2022-07-04T05:26:09;4.07;;;2.08;;
22072;SDS011;11202;50.916;4.698;2022-07-04T05:28:35;3.67;;;2.38;;
22072;SDS011;11202;50.916;4.698;2022-07-04T05:31:00;4.35;;;1.98;;
22072;SDS011;11202;50.916;4.698;2022-07-04T05:33:26;4.70;;;1.58;;
22072;SDS011;11202;50.916;4.698;2022-07-04T05:35:52;5.25;;;1.50;;
22072;SDS011;11202;50.916;4.698;2022-07-04T05:38:17;2.42;;;1.40;;
22072;SDS011;11202;50.916;4.698;2022-07-04T05:40:43;3.50;;;1.55;;
22072;SDS011;11202;50.916;4.698;2022-07-04T05:43:09;3.50;;;1.40;;
22072;SDS011;11202;50.916;4.698;2022-07-04T05:45:36;2.45;;;1.08;;
22072;SDS011;11202;50.916;4.698;2022-07-04T05:48:03;3.67;;;1.20;;
22072;SDS011;11202;50.916;4.698;2022-07-04T05:50:28;3.22;;;1.38;;
22072;SDS011;11202;50.916;4.698;2022-07-04T05:52:54;2.28;;;0.95;;
22072;SDS011;11202;50.916;4.698;2022-07-04T05:55:20;2.53;;;1.20;;
22072;SDS011;11202;50.916;4.698;2022-07-04T05:57:46;2.08;;;1.00;;
22072;SDS011;11202;50.916;4.698;2022-07-04T06:00:11;3.53;;;1.40;;
22072;SDS011;11202;50.916;4.698;2022-07-04T06:02:37;6.35;;;1.23;;
22072;SDS011;11202;50.916;4.698;2022-07-04T06:05:03;4.63;;;1.27;;
22072;SDS011;11202;50.916;4.698;2022-07-04T06:07:31;3.03;;;1.20;;
22072;SDS011;11202;50.916;4.698;2022-07-04T06:09:56;4.60;;;1.30;;
22072;SDS011;11202;50.916;4.698;2022-07-04T06:12:24;5.53;;;1.02;;
22072;SDS011;11202;50.916;4.698;2022-07-04T06:14:50;2.83;;;1.13;;
22072;SDS011;11202;50.916;4.698;2022-07-04T06:17:15;3.45;;;1.00;;
22072;SDS011;11202;50.916;4.698;2022-07-04T06:19:41;4.15;;;1.05;;
22072;SDS011;11202;50.916;4.698;2022-07-04T06:22:06;1.88;;;0.90;;
22072;SDS011;11202;50.916;4.698;2022-07-04T06:24:32;4.90;;;1.25;;
22072;SDS011;11202;50.916;4.698;2022-07-04T06:26:58;3.78;;;1.10;;
22072;SDS011;11202;50.916;4.698;2022-07-04T06:29:24;1.85;;;0.70;;
22072;SDS011;11202;50.916;4.698;2022-07-04T06:31:50;3.40;;;1.10;;
22072;SDS011;11202;50.916;4.698;2022-07-04T06:34:16;2.80;;;1.10;;
22072;SDS011;11202;50.916;4.698;2022-07-04T06:37:02;3.40;;;1.15;;
22072;SDS011;11202;50.916;4.698;2022-07-04T06:39:28;2.00;;;0.93;;
22072;SDS011;11202;50.916;4.698;2022-07-04T06:41:54;2.42;;;1.00;;
22072;SDS011;11202;50.916;4.698;2022-07-04T06:44:20;6.20;;;1.10;;
22072;SDS011;11202;50.916;4.698;2022-07-04T06:46:46;3.17;;;1.02;;
22072;SDS011;11202;50.916;4.698;2022-07-04T06:49:12;3.42;;;1.23;;
22072;SDS011;11202;50.916;4.698;2022-07-04T06:51:37;2.13;;;1.10;;
22072;SDS011;11202;50.916;4.698;2022-07-04T06:54:03;6.30;;;1.38;;
22072;SDS011;11202;50.916;4.698;2022-07-04T06:56:29;4.05;;;1.20;;
22072;SDS011;11202;50.916;4.698;2022-07-04T06:58:55;4.00;;;1.10;;
22072;SDS011;11202;50.916;4.698;2022-07-04T07:01:21;5.35;;;1.50;;
22072;SDS011;11202;50.916;4.698;2022-07-04T07:03:47;3.80;;;1.17;;
22072;SDS011;11202;50.916;4.698;2022-07-04T07:06:12;4.75;;;1.30;;
22072;SDS011;11202;50.916;4.698;2022-07-04T07:08:41;4.68;;;1.58;;
22072;SDS011;11202;50.916;4.698;2022-07-04T07:11:07;3.53;;;1.30;;
22072;SDS011;11202;50.916;4.698;2022-07-04T07:13:48;3.35;;;1.13;;
22072;SDS011;11202;50.916;4.698;2022-07-04T07:16:16;3.70;;;1.23;;
22072;SDS011;11202;50.916;4.698;2022-07-04T07:18:42;3.03;;;1.25;;
22072;SDS011;11202;50.916;4.698;2022-07-04T07:21:09;3.63;;;1.23;;
22072;SDS011;11202;50.916;4.698;2022-07-04T07:23:39;4.65;;;1.58;;
22072;SDS011;11202;50.916;4.698;2022-07-04T07:26:05;5.95;;;1.50;;
22072;SDS011;11202;50.916;4.698;2022-07-04T07:28:31;3.38;;;1.40;;
22072;SDS011;11202;50.916;4.698;2022-07-04T07:30:57;9.05;;;1.27;;
22072;SDS011;11202;50.916;4.698;2022-07-04T07:33:22;2.80;;;1.15;;
22072;SDS011;11202;50.916;4.698;2022-07-04T07:35:48;3.00;;;1.08;;
22072;SDS011;11202;50.916;4.698;2022-07-04T07:38:14;2.25;;;0.93;;
22072;SDS011;11202;50.916;4.698;2022-07-04T07:40:39;6.05;;;0.93;;
22072;SDS011;11202;50.916;4.698;2022-07-04T07:43:05;3.13;;;1.23;;
22072;SDS011;11202;50.916;4.698;2022-07-04T07:45:36;6.00;;;1.10;;
22072;SDS011;11202;50.916;4.698;2022-07-04T07:48:06;3.53;;;1.23;;
22072;SDS011;11202;50.916;4.698;2022-07-04T07:50:31;3.35;;;0.80;;
22072;SDS011;11202;50.916;4.698;2022-07-04T07:52:57;4.13;;;1.00;;
22072;SDS011;11202;50.916;4.698;2022-07-04T07:55:23;3.58;;;1.20;;
22072;SDS011;11202;50.916;4.698;2022-07-04T07:57:49;4.43;;;1.20;;
22072;SDS011;11202;50.916;4.698;2022-07-04T08:00:15;2.63;;;0.90;;
22072;SDS011;11202;50.916;4.698;2022-07-04T08:02:41;3.10;;;0.70;;
22072;SDS011;11202;50.916;4.698;2022-07-04T08:05:25;1.73;;;0.65;;
22072;SDS011;11202;50.916;4.698;2022-07-04T08:07:51;3.92;;;1.00;;
22072;SDS011;11202;50.916;4.698;2022-07-04T08:10:16;3.88;;;1.08;;
22072;SDS011;11202;50.916;4.698;2022-07-04T08:12:42;3.42;;;0.70;;
22072;SDS011;11202;50.916;4.698;2022-07-04T08:15:08;3.30;;;1.00;;
22072;SDS011;11202;50.916;4.698;2022-07-04T08:17:34;2.13;;;0.90;;
22072;SDS011;11202;50.916;4.698;2022-07-04T08:20:01;5.13;;;1.10;;
22072;SDS011;11202;50.916;4.698;2022-07-04T08:22:28;3.15;;;0.50;;
22072;SDS011;11202;50.916;4.698;2022-07-04T08:24:53;2.58;;;0.70;;
22072;SDS011;11202;50.916;4.698;2022-07-04T08:27:20;3.83;;;0.80;;
22072;SDS011;11202;50.916;4.698;2022-07-04T08:29:47;2.92;;;1.20;;
22072;SDS011;11202;50.916;4.698;2022-07-04T08:32:13;1.08;;;0.38;;
22072;SDS011;11202;50.916;4.698;2022-07-04T08:34:39;1.58;;;0.70;;
22072;SDS011;11202;50.916;4.698;2022-07-04T08:37:04;1.65;;;0.85;;
22072;SDS011;11202;50.916;4.698;2022-07-04T08:39:30;3.35;;;0.90;;
22072;SDS011;11202;50.916;4.698;2022-07-04T08:41:58;1.73;;;0.75;;
22072;SDS011;11202;50.916;4.698;2022-07-04T08:44:30;2.75;;;0.90;;
22072;SDS011;11202;50.916;4.698;2022-07-04T08:47:00;1.30;;;0.65;;
22072;SDS011;11202;50.916;4.698;2022-07-04T08:49:28;2.33;;;0.80;;
22072;SDS011;11202;50.916;4.698;2022-07-04T08:52:01;3.78;;;0.70;;
22072;SDS011;11202;50.916;4.698;2022-07-04T08:57:19;2.78;;;0.95;;
22072;SDS011;11202;50.916;4.698;2022-07-04T09:00:04;4.03;;;1.02;;
22072;SDS011;11202;50.916;4.698;2022-07-04T09:02:31;2.22;;;0.77;;
22072;SDS011;11202;50.916;4.698;2022-07-04T09:04:58;4.65;;;0.70;;
22072;SDS011;11202;50.916;4.698;2022-07-04T09:07:30;2.78;;;0.70;;
22072;SDS011;11202;50.916;4.698;2022-07-04T09:09:57;2.85;;;0.93;;
22072;SDS011;11202;50.916;4.698;2022-07-04T09:12:23;0.77;;;0.63;;
22072;SDS011;11202;50.916;4.698;2022-07-04T09:14:49;4.38;;;0.77;;
22072;SDS011;11202;50.916;4.698;2022-07-04T09:17:17;2.35;;;0.82;;
22072;SDS011;11202;50.916;4.698;2022-07-04T09:19:43;2.10;;;0.77;;
22072;SDS011;11202;50.916;4.698;2022-07-04T09:22:09;1.33;;;0.68;;
22072;SDS011;11202;50.916;4.698;2022-07-04T09:24:49;1.58;;;0.70;;
22072;SDS011;11202;50.916;4.698;2022-07-04T09:30:14;4.72;;;0.77;;
22072;SDS011;11202;50.916;4.698;2022-07-04T09:32:49;1.63;;;0.67;;
22072;SDS011;11202;50.916;4.698;2022-07-04T09:35:17;4.65;;;1.00;;
22072;SDS011;11202;50.916;4.698;2022-07-04T09:37:49;2.10;;;0.90;;
22072;SDS011;11202;50.916;4.698;2022-07-04T09:40:34;2.65;;;0.60;;
22072;SDS011;11202;50.916;4.698;2022-07-04T09:43:21;2.55;;;0.82;;
22072;SDS011;11202;50.916;4.698;2022-07-04T09:45:57;2.20;;;0.55;;
22072;SDS011;11202;50.916;4.698;2022-07-04T09:48:25;2.47;;;0.60;;
22072;SDS011;11202;50.916;4.698;2022-07-04T09:50:51;1.60;;;0.60;;
22072;SDS011;11202;50.916;4.698;2022-07-04T09:53:17;2.55;;;0.50;;
22072;SDS011;11202;50.916;4.698;2022-07-04T09:55:43;1.00;;;0.50;;
22072;SDS011;11202;50.916;4.698;2022-07-04T09:58:12;3.30;;;1.08;;
22072;SDS011;11202;50.916;4.698;2022-07-04T10:00:45;2.35;;;0.63;;
22072;SDS011;11202;50.916;4.698;2022-07-04T10:03:24;1.77;;;0.80;;
22072;SDS011;11202;50.916;4.698;2022-07-04T10:06:03;1.80;;;0.77;;
22072;SDS011;11202;50.916;4.698;2022-07-04T10:08:37;3.17;;;0.82;;
22072;SDS011;11202;50.916;4.698;2022-07-04T10:11:10;2.75;;;0.52;;
22072;SDS011;11202;50.916;4.698;2022-07-04T10:13:37;2.45;;;0.82;;
22072;SDS011;11202;50.916;4.698;2022-07-04T10:16:22;2.83;;;0.98;;
22072;SDS011;11202;50.916;4.698;2022-07-04T10:18:49;2.65;;;1.08;;
22072;SDS011;11202;50.916;4.698;2022-07-04T10:21:15;1.35;;;0.50;;
22072;SDS011;11202;50.916;4.698;2022-07-04T10:23:41;1.73;;;0.60;;
22072;SDS011;11202;50.916;4.698;2022-07-04T10:26:07;2.05;;;1.00;;
22072;SDS011;11202;50.916;4.698;2022-07-04T10:28:32;1.63;;;0.60;;
22072;SDS011;11202;50.916;4.698;2022-07-04T10:30:59;3.55;;;0.57;;
22072;SDS011;11202;50.916;4.698;2022-07-04T10:33:26;3.63;;;0.88;;
22072;SDS011;11202;50.916;4.698;2022-07-04T10:35:54;2.10;;;0.70;;
22072;SDS011;11202;50.916;4.698;2022-07-04T10:38:27;2.60;;;0.88;;
22072;SDS011;11202;50.916;4.698;2022-07-04T10:40:55;1.58;;;0.85;;
22072;SDS011;11202;50.916;4.698;2022-07-04T10:48:50;2.83;;;1.00;;
22072;SDS011;11202;50.916;4.698;2022-07-04T10:51:39;3.38;;;1.00;;
22072;SDS011;11202;50.916;4.698;2022-07-04T10:56:35;2.08;;;0.90;;
22072;SDS011;11202;50.916;4.698;2022-07-04T10:59:19;4.20;;;0.90;;
22072;SDS011;11202;50.916;4.698;2022-07-04T11:17:56;5.78;;;1.20;;
22072;SDS011;11202;50.916;4.698;2022-07-04T11:20:31;3.58;;;1.30;;
22072;SDS011;11202;50.916;4.698;2022-07-04T11:25:33;4.30;;;1.48;;
22072;SDS011;11202;50.916;4.698;2022-07-04T11:30:48;2.97;;;1.48;;
22072;SDS011;11202;50.916;4.698;2022-07-04T11:33:25;5.45;;;1.60;;
22072;SDS011;11202;50.916;4.698;2022-07-04T11:38:40;3.88;;;1.45;;
22072;SDS011;11202;50.916;4.698;2022-07-04T11:41:22;4.35;;;1.08;;
22072;SDS011;11202;50.916;4.698;2022-07-04T11:44:11;1.65;;;0.75;;
22072;SDS011;11202;50.916;4.698;2022-07-04T11:49:41;2.72;;;1.05;;
22072;SDS011;11202;50.916;4.698;2022-07-04T11:52:10;2.90;;;1.30;;
22072;SDS011;11202;50.916;4.698;2022-07-04T11:54:38;2.05;;;1.20;;
22072;SDS011;11202;50.916;4.698;2022-07-04T11:59:55;3.15;;;1.30;;
22072;SDS011;11202;50.916;4.698;2022-07-04T12:02:24;1.73;;;0.93;;
22072;SDS011;11202;50.916;4.698;2022-07-04T12:04:53;2.75;;;1.10;;
22072;SDS011;11202;50.916;4.698;2022-07-04T12:07:23;1.15;;;0.90;;
22072;SDS011;11202;50.916;4.698;2022-07-04T12:09:50;2.13;;;1.05;;
22072;SDS011;11202;50.916;4.698;2022-07-04T12:12:17;2.28;;;1.05;;
22072;SDS011;11202;50.916;4.698;2022-07-04T12:17:49;2.08;;;1.20;;
22072;SDS011;11202;50.916;4.698;2022-07-04T12:20:19;1.63;;;0.95;;
22072;SDS011;11202;50.916;4.698;2022-07-04T12:22:51;4.60;;;1.20;;
22072;SDS011;11202;50.916;4.698;2022-07-04T12:28:11;3.40;;;1.35;;
22072;SDS011;11202;50.916;4.698;2022-07-04T12:30:40;4.97;;;1.48;;
22072;SDS011;11202;50.916;4.698;2022-07-04T12:33:12;1.63;;;1.23;;
22072;SDS011;11202;50.916;4.698;2022-07-04T12:48:36;2.85;;;1.48;;
22072;SDS011;11202;50.916;4.698;2022-07-04T12:53:37;3.53;;;1.73;;
22072;SDS011;11202;50.916;4.698;2022-07-04T12:56:04;5.10;;;1.50;;
22072;SDS011;11202;50.916;4.698;2022-07-04T12:58:31;3.90;;;1.20;;
22072;SDS011;11202;50.916;4.698;2022-07-04T13:00:56;2.22;;;1.10;;
22072;SDS011;11202;50.916;4.698;2022-07-04T13:03:22;2.83;;;1.20;;
22072;SDS011;11202;50.916;4.698;2022-07-04T13:05:50;2.13;;;0.98;;
22072;SDS011;11202;50.916;4.698;2022-07-04T13:08:17;2.22;;;1.00;;
22072;SDS011;11202;50.916;4.698;2022-07-04T13:10:43;3.95;;;1.20;;
22072;SDS011;11202;50.916;4.698;2022-07-04T13:13:08;6.55;;;1.45;;
22072;SDS011;11202;50.916;4.698;2022-07-04T13:15:34;1.58;;;1.08;;
22072;SDS011;11202;50.916;4.698;2022-07-04T13:18:01;3.17;;;1.27;;
22072;SDS011;11202;50.916;4.698;2022-07-04T13:20:26;1.73;;;0.95;;
22072;SDS011;11202;50.916;4.698;2022-07-04T13:22:54;3.55;;;1.38;;
22072;SDS011;11202;50.916;4.698;2022-07-04T13:25:20;2.33;;;1.17;;
22072;SDS011;11202;50.916;4.698;2022-07-04T13:27:47;3.60;;;1.30;;
22072;SDS011;11202;50.916;4.698;2022-07-04T13:30:12;2.38;;;1.10;;
22072;SDS011;11202;50.916;4.698;2022-07-04T13:32:39;3.45;;;1.30;;
22072;SDS011;11202;50.916;4.698;2022-07-04T13:35:05;3.78;;;1.08;;
22072;SDS011;11202;50.916;4.698;2022-07-04T13:37:33;2.35;;;1.27;;
22072;SDS011;11202;50.916;4.698;2022-07-04T13:40:02;4.73;;;1.40;;
22072;SDS011;11202;50.916;4.698;2022-07-04T13:42:28;3.47;;;1.48;;
22072;SDS011;11202;50.916;4.698;2022-07-04T13:45:12;3.35;;;1.40;;
22072;SDS011;11202;50.916;4.698;2022-07-04T13:47:40;7.70;;;1.42;;
22072;SDS011;11202;50.916;4.698;2022-07-04T13:50:07;2.55;;;1.30;;
22072;SDS011;11202;50.916;4.698;2022-07-04T13:52:33;1.73;;;1.27;;
22072;SDS011;11202;50.916;4.698;2022-07-04T13:54:59;6.22;;;1.50;;
22072;SDS011;11202;50.916;4.698;2022-07-04T13:57:25;3.08;;;1.15;;
22072;SDS011;11202;50.916;4.698;2022-07-04T13:59:51;3.00;;;0.93;;
22072;SDS011;11202;50.916;4.698;2022-07-04T14:02:17;2.03;;;1.05;;
22072;SDS011;11202;50.916;4.698;2022-07-04T14:04:43;4.38;;;1.38;;
22072;SDS011;11202;50.916;4.698;2022-07-04T14:07:10;2.63;;;1.00;;
22072;SDS011;11202;50.916;4.698;2022-07-04T14:09:36;4.45;;;1.17;;
22072;SDS011;11202;50.916;4.698;2022-07-04T14:12:02;3.63;;;1.08;;
22072;SDS011;11202;50.916;4.698;2022-07-04T14:14:28;2.78;;;1.00;;
22072;SDS011;11202;50.916;4.698;2022-07-04T14:16:54;6.03;;;1.10;;
22072;SDS011;11202;50.916;4.698;2022-07-04T14:19:20;1.63;;;1.00;;
22072;SDS011;11202;50.916;4.698;2022-07-04T14:21:45;3.25;;;1.48;;
22072;SDS011;11202;50.916;4.698;2022-07-04T14:24:14;3.15;;;1.20;;
22072;SDS011;11202;50.916;4.698;2022-07-04T14:26:41;2.53;;;1.38;;
22072;SDS011;11202;50.916;4.698;2022-07-04T14:29:07;3.60;;;1.40;;
22072;SDS011;11202;50.916;4.698;2022-07-04T14:31:36;3.75;;;1.10;;
22072;SDS011;11202;50.916;4.698;2022-07-04T14:34:01;1.20;;;1.00;;
22072;SDS011;11202;50.916;4.698;2022-07-04T14:36:28;3.45;;;1.20;;
22072;SDS011;11202;50.916;4.698;2022-07-04T14:38:53;2.85;;;1.15;;
22072;SDS011;11202;50.916;4.698;2022-07-04T14:41:22;2.28;;;1.20;;
22072;SDS011;11202;50.916;4.698;2022-07-04T14:43:47;1.52;;;0.82;;
22072;SDS011;11202;50.916;4.698;2022-07-04T14:46:13;2.83;;;1.30;;
22072;SDS011;11202;50.916;4.698;2022-07-04T14:48:41;3.65;;;1.08;;
22072;SDS011;11202;50.916;4.698;2022-07-04T14:51:10;1.38;;;0.85;;
22072;SDS011;11202;50.916;4.698;2022-07-04T14:53:38;1.75;;;1.00;;
22072;SDS011;11202;50.916;4.698;2022-07-04T14:56:04;2.47;;;1.30;;
22072;SDS011;11202;50.916;4.698;2022-07-04T14:58:30;3.15;;;1.23;;
22072;SDS011;11202;50.916;4.698;2022-07-04T15:00:56;2.75;;;1.02;;
22072;SDS011;11202;50.916;4.698;2022-07-04T15:03:22;3.65;;;1.10;;
22072;SDS011;11202;50.916;4.698;2022-07-04T15:05:50;3.53;;;1.02;;
22072;SDS011;11202;50.916;4.698;2022-07-04T15:08:19;2.88;;;0.90;;
22072;SDS011;11202;50.916;4.698;2022-07-04T15:10:45;1.75;;;0.90;;
22072;SDS011;11202;50.916;4.698;2022-07-04T15:13:11;2.67;;;1.00;;
22072;SDS011;11202;50.916;4.698;2022-07-04T15:15:38;2.72;;;1.10;;
22072;SDS011;11202;50.916;4.698;2022-07-04T15:18:04;3.88;;;1.10;;
22072;SDS011;11202;50.916;4.698;2022-07-04T15:20:30;2.30;;;1.00;;
22072;SDS011;11202;50.916;4.698;2022-07-04T15:23:14;1.95;;;1.10;;
22072;SDS011;11202;50.916;4.698;2022-07-04T15:25:58;1.70;;;1.13;;
22072;SDS011;11202;50.916;4.698;2022-07-04T15:28:24;2.83;;;1.20;;
22072;SDS011;11202;50.916;4.698;2022-07-04T15:30:52;3.47;;;1.00;;
22072;SDS011;11202;50.916;4.698;2022-07-04T15:33:18;3.65;;;1.17;;
22072;SDS011;11202;50.916;4.698;2022-07-04T15:35:44;1.83;;;1.30;;
22072;SDS011;11202;50.916;4.698;2022-07-04T15:38:10;6.85;;;1.70;;
22072;SDS011;11202;50.916;4.698;2022-07-04T15:40:37;2.78;;;1.25;;
22072;SDS011;11202;50.916;4.698;2022-07-04T15:43:07;3.20;;;1.30;;
22072;SDS011;11202;50.916;4.698;2022-07-04T15:45:33;7.28;;;1.10;;
22072;SDS011;11202;50.916;4.698;2022-07-04T15:47:59;3.15;;;1.17;;
22072;SDS011;11202;50.916;4.698;2022-07-04T15:50:24;2.35;;;0.93;;
22072;SDS011;11202;50.916;4.698;2022-07-04T15:52:52;3.53;;;1.48;;
22072;SDS011;11202;50.916;4.698;2022-07-04T15:55:17;4.28;;;1.23;;